Time;durP1;ratioP1;P1;durP2;ratioP2;P2;SDS_P1;SDS_P2;PMS_P1;PMS_P2;Temp;Humidity;BMP_temperature;BMP_pressure;BME280_temperature;BME280_humidity;BME280_pressure;Samples;Min_cycle;Max_cycle;Signal;HPM_P1;HPM_P2
2022/05/31 00:01:41;;;;;;;4.43;1.83;;;;;;;14.55;51.26;100270.72;4932960;29;20238;-73
2022/05/31 00:04:10;;;;;;;3.57;1.80;;;;;;;14.55;51.29;100271.56;4932522;29;20665;-73
2022/05/31 00:06:39;;;;;;;5.03;2.00;;;;;;;14.49;51.50;100266.13;4929581;29;20220;-72
2022/05/31 00:09:06;;;;;;;3.73;1.50;;;;;;;14.45;51.67;100265.63;4934561;29;20280;-73
2022/05/31 00:11:35;;;;;;;4.43;1.70;;;;;;;14.44;51.62;100263.97;4932974;29;20223;-73
2022/05/31 00:14:04;;;;;;;4.20;1.87;;;;;;;14.40;51.91;100261.84;4930340;29;20296;-74
2022/05/31 00:16:32;;;;;;;7.23;2.07;;;;;;;14.38;51.96;100259.31;4932236;29;20240;-72
2022/05/31 00:19:00;;;;;;;10.27;2.23;;;;;;;14.35;51.88;100259.66;4931375;29;20263;-72
2022/05/31 00:21:41;;;;;;;4.37;1.90;;;;;;;14.34;51.92;100258.00;4933041;29;20215;-72
2022/05/31 00:24:11;;;;;;;3.70;1.90;;;;;;;14.30;51.87;100257.53;4928828;29;20208;-72
2022/05/31 00:26:40;;;;;;;7.73;2.10;;;;;;;14.27;51.95;100265.06;4933955;29;20215;-72
2022/05/31 00:29:08;;;;;;;10.27;1.97;;;;;;;14.25;51.98;100267.91;4930890;29;20255;-72
2022/05/31 00:31:39;;;;;;;5.07;2.07;;;;;;;14.29;51.91;100263.06;4930846;29;20799;-72
2022/05/31 00:34:07;;;;;;;2.90;1.80;;;;;;;14.26;51.97;100263.38;4930302;29;20303;-73
2022/05/31 00:36:37;;;;;;;7.67;3.10;;;;;;;14.26;52.06;100264.22;4929911;29;20264;-72
2022/05/31 00:39:05;;;;;;;8.67;2.40;;;;;;;14.26;52.03;100268.72;4931680;29;20261;-73
2022/05/31 00:41:34;;;;;;;2.57;1.70;;;;;;;14.21;52.20;100269.28;4931873;29;20252;-73
2022/05/31 00:44:07;;;;;;;3.47;1.80;;;;;;;14.20;52.00;100266.78;4930357;29;20218;-73
2022/05/31 00:46:43;;;;;;;2.73;1.70;;;;;;;14.22;52.09;100265.59;4928933;29;20266;-73
2022/05/31 00:49:15;;;;;;;5.17;2.00;;;;;;;14.18;51.99;100264.28;4933475;29;20219;-73
2022/05/31 00:51:49;;;;;;;4.20;1.90;;;;;;;14.15;52.24;100263.81;4930665;29;20725;-73
2022/05/31 00:54:20;;;;;;;3.63;2.00;;;;;;;14.11;52.46;100267.81;4931873;29;20204;-73
2022/05/31 00:56:51;;;;;;;3.50;1.73;;;;;;;14.05;52.55;100264.03;4934807;29;20275;-73
2022/05/31 00:59:23;;;;;;;6.33;1.73;;;;;;;14.01;52.71;100267.22;4928474;29;20244;-72
2022/05/31 01:01:54;;;;;;;5.43;1.83;;;;;;;14.04;52.58;100266.88;4930670;29;20234;-72
2022/05/31 01:04:31;;;;;;;5.33;1.90;;;;;;;14.02;52.93;100268.88;4932034;29;20220;-72
2022/05/31 01:07:02;;;;;;;4.20;1.97;;;;;;;13.96;52.81;100270.41;4932138;29;20301;-73
2022/05/31 01:09:31;;;;;;;4.63;1.70;;;;;;;13.96;52.92;100269.59;4930338;29;20215;-73
2022/05/31 01:12:00;;;;;;;3.87;2.00;;;;;;;13.94;52.95;100273.25;4930171;29;20258;-73
2022/05/31 01:14:29;;;;;;;3.60;1.87;;;;;;;13.90;53.07;100271.94;4930919;29;20314;-73
2022/05/31 01:16:59;;;;;;;5.30;2.50;;;;;;;13.88;53.23;100273.97;4931371;29;20327;-73
2022/05/31 01:22:16;;;;;;;4.27;2.17;;;;;;;13.83;53.37;100280.78;4933297;29;20242;-73
2022/05/31 01:24:54;;;;;;;3.33;2.20;;;;;;;13.84;53.41;100274.47;4934146;29;20223;-73
2022/05/31 01:27:33;;;;;;;3.93;2.03;;;;;;;13.80;53.37;100275.84;4930516;29;20217;-73
2022/05/31 01:30:06;;;;;;;5.50;2.63;;;;;;;13.80;53.56;100275.84;4928958;29;20239;-73
2022/05/31 01:32:40;;;;;;;3.83;2.30;;;;;;;13.77;53.60;100274.34;4928187;29;20309;-73
2022/05/31 01:35:12;;;;;;;5.13;2.17;;;;;;;13.72;53.80;100278.53;4930139;29;20305;-72
2022/05/31 01:37:47;;;;;;;5.53;2.50;;;;;;;13.71;53.91;100272.38;4931510;29;20239;-72
2022/05/31 01:40:21;;;;;;;5.53;2.80;;;;;;;13.71;53.85;100271.53;4930516;29;20281;-72
2022/05/31 01:42:49;;;;;;;6.47;2.47;;;;;;;13.69;53.89;100269.03;4932850;29;20204;-72
2022/05/31 01:45:21;;;;;;;5.63;2.53;;;;;;;13.68;54.05;100272.72;4926287;29;20721;-72
2022/05/31 01:47:49;;;;;;;4.37;2.10;;;;;;;13.68;53.94;100261.22;4931120;29;20207;-72
2022/05/31 01:50:20;;;;;;;5.53;2.60;;;;;;;13.61;54.19;100269.09;4928977;29;20211;-73
2022/05/31 01:52:55;;;;;;;4.37;2.50;;;;;;;13.58;54.27;100261.41;4930471;29;20230;-73
2022/05/31 01:55:25;;;;;;;5.37;2.17;;;;;;;13.56;54.35;100256.25;4929165;29;20715;-73
2022/05/31 01:57:59;;;;;;;6.57;2.80;;;;;;;13.52;54.59;100256.78;4929349;29;20259;-73
2022/05/31 02:00:27;;;;;;;4.63;2.17;;;;;;;13.51;54.73;100258.63;4930352;29;20245;-73
2022/05/31 02:02:59;;;;;;;5.27;2.50;;;;;;;13.47;54.71;100259.13;4929532;29;20683;-71
2022/05/31 02:05:30;;;;;;;4.87;2.40;;;;;;;13.48;54.69;100260.78;4925866;29;20219;-72
2022/05/31 02:08:01;;;;;;;7.00;2.43;;;;;;;13.47;54.72;100248.47;4928745;29;20229;-71
2022/05/31 02:10:32;;;;;;;4.77;2.33;;;;;;;13.48;54.77;100255.47;4926527;29;20234;-72
2022/05/31 02:13:00;;;;;;;4.60;2.23;;;;;;;13.46;54.78;100258.28;4930698;29;20279;-72
2022/05/31 02:15:28;;;;;;;6.70;2.43;;;;;;;13.45;54.79;100261.97;4928461;29;20660;-71
2022/05/31 02:17:56;;;;;;;6.13;2.60;;;;;;;13.38;55.17;100254.81;4928652;29;20673;-72
2022/05/31 02:20:26;;;;;;;5.77;2.43;;;;;;;13.38;55.14;100254.81;4928221;29;20272;-72
2022/05/31 02:22:55;;;;;;;6.13;2.63;;;;;;;13.35;55.29;100255.19;4927396;29;20271;-71
2022/05/31 02:25:24;;;;;;;4.00;2.30;;;;;;;13.32;55.41;100258.19;4930235;29;20242;-71
2022/05/31 02:27:52;;;;;;;5.47;2.67;;;;;;;13.28;55.86;100254.22;4933407;29;20225;-72
2022/05/31 02:30:20;;;;;;;6.00;2.60;;;;;;;13.34;55.52;100253.53;4928420;29;20341;-72
2022/05/31 02:32:48;;;;;;;4.97;2.50;;;;;;;13.31;55.65;100243.19;4928988;29;20308;-72
2022/05/31 02:35:16;;;;;;;6.43;3.00;;;;;;;13.27;55.98;100248.06;4929589;29;20278;-71
2022/05/31 02:37:44;;;;;;;3.63;2.33;;;;;;;13.27;55.96;100252.56;4928370;29;20314;-71
2022/05/31 02:40:13;;;;;;;7.77;2.40;;;;;;;13.29;55.98;100251.34;4928894;29;20214;-73
2022/05/31 02:42:45;;;;;;;5.83;2.53;;;;;;;13.29;55.96;100255.84;4933107;29;20216;-72
2022/05/31 02:45:13;;;;;;;3.83;2.43;;;;;;;13.26;55.96;100246.38;4929819;29;20218;-72
2022/05/31 02:47:42;;;;;;;5.57;2.53;;;;;;;13.27;56.13;100241.91;4933550;29;20569;-72
2022/05/31 02:50:10;;;;;;;8.07;2.83;;;;;;;13.24;56.16;100236.91;4928988;29;20218;-72
2022/05/31 02:52:38;;;;;;;4.97;2.70;;;;;;;13.17;56.22;100237.59;4935342;29;20218;-72
2022/05/31 02:55:07;;;;;;;4.90;2.60;;;;;;;13.15;56.74;100238.75;4931456;29;20589;-72
2022/05/31 02:57:35;;;;;;;5.77;2.57;;;;;;;13.15;56.49;100231.59;4933894;29;20302;-72
2022/05/31 03:00:05;;;;;;;5.57;2.50;;;;;;;13.16;56.53;100238.59;4929971;29;20216;-72
2022/05/31 03:02:36;;;;;;;5.93;2.70;;;;;;;13.14;56.64;100237.94;4933447;29;20658;-72
2022/05/31 03:05:09;;;;;;;4.33;2.20;;;;;;;13.13;56.69;100235.41;4930784;29;20213;-72
2022/05/31 03:07:36;;;;;;;6.67;3.00;;;;;;;13.11;56.58;100229.41;4931817;29;20211;-72
2022/05/31 03:10:05;;;;;;;6.97;3.40;;;;;;;13.10;56.77;100236.59;4931110;29;20307;-73
2022/05/31 03:12:35;;;;;;;7.70;3.23;;;;;;;13.05;56.87;100228.25;4930691;29;20226;-72
2022/05/31 03:15:11;;;;;;;5.67;2.50;;;;;;;13.03;56.97;100224.94;4932825;29;20215;-72
2022/05/31 03:17:44;;;;;;;4.47;2.40;;;;;;;13.04;56.92;100231.09;4930918;29;20798;-73
2022/05/31 03:20:16;;;;;;;10.27;2.63;;;;;;;13.01;57.05;100226.97;4932036;29;20294;-73
2022/05/31 03:22:48;;;;;;;4.70;2.40;;;;;;;13.01;57.18;100231.44;4931106;29;20214;-73
2022/05/31 03:25:19;;;;;;;4.70;2.10;;;;;;;12.98;57.22;100227.28;4930881;29;20308;-72
2022/05/31 03:27:48;;;;;;;7.43;2.47;;;;;;;12.99;57.32;100228.94;4931487;29;20245;-73
2022/05/31 03:30:17;;;;;;;5.50;2.30;;;;;;;12.96;57.26;100218.63;4934917;29;20661;-72
2022/05/31 03:32:46;;;;;;;9.33;2.70;;;;;;;12.94;57.21;100220.63;4932915;29;20271;-72
2022/05/31 03:35:14;;;;;;;6.33;2.70;;;;;;;12.96;57.27;100220.47;4933170;29;20664;-72
2022/05/31 03:37:42;;;;;;;7.57;2.87;;;;;;;12.95;57.20;100216.97;4933149;29;21669;-72
2022/05/31 03:40:11;;;;;;;5.27;2.83;;;;;;;12.96;57.16;100218.63;4930456;29;20253;-72
2022/05/31 03:42:39;;;;;;;4.87;2.37;;;;;;;12.94;57.15;100220.63;4928197;29;20217;-72
2022/05/31 03:45:08;;;;;;;5.43;2.30;;;;;;;12.94;56.96;100209.97;4929399;29;20222;-71
2022/05/31 03:47:37;;;;;;;5.33;2.70;;;;;;;12.91;57.12;100213.00;4931296;29;20356;-71
2022/05/31 03:50:06;;;;;;;7.03;2.40;;;;;;;12.92;57.13;100204.03;4936390;29;20204;-72
2022/05/31 03:52:34;;;;;;;5.33;2.57;;;;;;;12.92;57.08;100201.34;4930492;29;20205;-71
2022/05/31 03:55:01;;;;;;;3.73;2.20;;;;;;;12.91;57.13;100205.00;4931498;29;20375;-71
2022/05/31 03:57:29;;;;;;;5.83;2.23;;;;;;;12.87;57.34;100202.84;4931562;29;20218;-73
2022/05/31 04:00:01;;;;;;;5.70;2.50;;;;;;;12.87;57.40;100203.69;4933641;29;20239;-73
2022/05/31 04:02:36;;;;;;;4.37;2.40;;;;;;;12.86;57.53;100191.38;4933560;29;20220;-72
2022/05/31 04:05:07;;;;;;;4.57;2.30;;;;;;;12.89;57.47;100188.38;4931738;29;20210;-72
2022/05/31 04:07:38;;;;;;;6.70;3.07;;;;;;;12.93;57.24;100192.34;4930010;29;20246;-72
2022/05/31 04:10:10;;;;;;;18.47;5.57;;;;;;;12.94;57.27;100198.50;4929593;29;20214;-72
2022/05/31 04:12:39;;;;;;;5.30;2.57;;;;;;;12.89;57.42;100192.88;4932836;29;20219;-72
2022/05/31 04:15:08;;;;;;;6.77;2.57;;;;;;;12.87;57.58;100201.03;4928454;29;20679;-72
2022/05/31 04:17:35;;;;;;;6.33;2.83;;;;;;;12.87;57.65;100198.34;4928071;29;20306;-72
2022/05/31 04:20:03;;;;;;;6.17;2.60;;;;;;;12.93;57.39;100197.66;4931845;29;20251;-73
2022/05/31 04:22:34;;;;;;;5.07;2.20;;;;;;;12.95;57.27;100195.69;4929500;29;20562;-72
2022/05/31 04:25:02;;;;;;;5.60;2.80;;;;;;;12.95;57.48;100200.16;4917180;29;20267;-73
2022/05/31 04:27:30;;;;;;;4.67;2.27;;;;;;;12.88;57.54;100194.69;4928728;29;20759;-72
2022/05/31 04:29:57;;;;;;;5.97;2.60;;;;;;;12.91;57.48;100198.84;4929014;29;20522;-72
2022/05/31 04:32:25;;;;;;;3.87;2.47;;;;;;;12.99;57.37;100202.34;4931983;29;20362;-72
2022/05/31 04:34:53;;;;;;;4.70;2.33;;;;;;;13.01;57.52;100195.03;4931488;29;20213;-71
2022/05/31 04:37:22;;;;;;;4.73;2.30;;;;;;;12.99;57.46;100194.34;4928383;29;20540;-71
2022/05/31 04:39:52;;;;;;;6.13;2.67;;;;;;;12.95;57.76;100198.34;4929933;29;20244;-70
2022/05/31 04:42:22;;;;;;;6.80;3.10;;;;;;;12.98;57.77;100195.34;4927192;29;20318;-71
2022/05/31 04:44:52;;;;;;;4.47;2.40;;;;;;;13.00;57.64;100185.38;4930776;29;20238;-71
2022/05/31 04:47:20;;;;;;;7.30;2.37;;;;;;;13.04;57.75;100184.00;4927055;29;20280;-71
2022/05/31 04:49:47;;;;;;;5.23;2.80;;;;;;;13.01;57.64;100184.38;4931516;29;20212;-71
2022/05/31 04:52:15;;;;;;;6.33;2.80;;;;;;;13.05;57.76;100184.84;4929713;29;20269;-71
2022/05/31 04:54:43;;;;;;;7.23;2.90;;;;;;;13.04;57.92;100194.66;4931883;29;20226;-72
2022/05/31 04:57:12;;;;;;;6.40;2.90;;;;;;;13.11;57.69;100200.13;4931010;29;20299;-72
2022/05/31 04:59:40;;;;;;;7.57;3.07;;;;;;;13.17;57.32;100195.00;4929685;29;20603;-72
2022/05/31 05:02:07;;;;;;;5.43;2.30;;;;;;;13.21;57.30;100194.63;4928949;29;20623;-72
2022/05/31 05:04:35;;;;;;;5.50;2.53;;;;;;;13.27;57.08;100184.16;4927411;29;20217;-71
2022/05/31 05:07:05;;;;;;;3.57;2.10;;;;;;;13.31;57.52;100181.94;4927321;29;20391;-70
2022/05/31 05:09:33;;;;;;;6.93;2.50;;;;;;;13.37;56.97;100179.41;4926621;29;20209;-72
2022/05/31 05:12:01;;;;;;;6.20;2.33;;;;;;;13.45;57.02;100183.91;4929607;29;20730;-71
2022/05/31 05:14:30;;;;;;;5.43;2.37;;;;;;;13.52;56.64;100182.22;4928833;29;20210;-71
2022/05/31 05:16:58;;;;;;;5.30;2.40;;;;;;;13.57;56.72;100185.16;4929753;29;20212;-74
2022/05/31 05:19:26;;;;;;;4.77;2.00;;;;;;;13.59;56.82;100193.81;4932469;29;20260;-71
2022/05/31 05:21:54;;;;;;;8.17;2.60;;;;;;;13.65;56.42;100190.44;4931043;29;20229;-72
2022/05/31 05:24:22;;;;;;;4.57;2.33;;;;;;;13.73;56.33;100189.56;4930258;29;20379;-72
2022/05/31 05:26:50;;;;;;;3.90;2.40;;;;;;;13.73;56.59;100189.56;4932046;29;20303;-72
2022/05/31 05:32:13;;;;;;;6.67;2.57;;;;;;;13.83;56.61;100191.00;4854739;29;20226;-71
2022/05/31 05:34:40;;;;;;;10.73;2.67;;;;;;;13.90;56.15;100196.47;4911504;29;20247;-72
2022/05/31 05:37:08;;;;;;;3.93;2.10;;;;;;;13.94;56.51;100187.13;4914602;29;20737;-71
2022/05/31 05:39:36;;;;;;;5.37;2.47;;;;;;;14.02;56.06;100191.56;4914124;29;20236;-71
2022/05/31 05:42:09;;;;;;;6.93;2.50;;;;;;;14.11;55.88;100195.84;4920546;29;20207;-71
2022/05/31 05:44:39;;;;;;;5.63;2.50;;;;;;;14.14;55.48;100199.00;4913092;29;20220;-69
2022/05/31 05:47:08;;;;;;;10.50;2.83;;;;;;;14.14;55.46;100195.50;4911668;29;20501;-71
2022/05/31 05:49:37;;;;;;;3.77;2.00;;;;;;;14.12;55.85;100189.50;4911042;29;20219;-70
2022/05/31 05:52:06;;;;;;;4.67;2.17;;;;;;;14.22;55.63;100184.75;4915883;29;20240;-70
2022/05/31 05:54:34;;;;;;;4.77;2.13;;;;;;;14.26;55.90;100178.88;4911383;29;20223;-71
2022/05/31 05:57:02;;;;;;;4.77;2.37;;;;;;;14.31;55.84;100178.34;4917079;29;20230;-71
2022/05/31 05:59:29;;;;;;;3.47;2.00;;;;;;;14.34;55.56;100177.97;4911382;29;20806;-71
2022/05/31 06:02:00;;;;;;;4.47;2.20;;;;;;;14.39;55.08;100188.16;4908714;29;20821;-71
2022/05/31 06:04:55;;;;;;;4.93;2.37;;;;;;;14.35;55.14;100184.97;4910106;29;22030;-71
2022/05/31 06:07:29;;;;;;;3.70;1.90;;;;;;;14.36;55.20;100185.81;4908969;29;20230;-71
2022/05/31 06:10:00;;;;;;;6.53;2.40;;;;;;;14.43;55.74;100187.59;4910658;29;20565;-71
2022/05/31 06:12:32;;;;;;;12.27;2.80;;;;;;;14.49;55.79;100197.59;4907886;29;20216;-71
2022/05/31 06:15:05;;;;;;;9.00;2.83;;;;;;;14.53;55.73;100196.19;4908846;29;20308;-71
2022/05/31 06:17:39;;;;;;;9.70;2.47;;;;;;;14.60;55.25;100204.34;4902023;29;20716;-70
2022/05/31 06:20:09;;;;;;;5.73;1.97;;;;;;;14.61;55.85;100195.28;4908347;29;20804;-70
2022/05/31 06:22:40;;;;;;;6.23;3.93;;;;;;;14.63;55.47;100206.63;4907222;29;20548;-70
2022/05/31 06:25:09;;;;;;;6.50;3.00;;;;;;;14.74;54.82;100200.03;4910103;29;20248;-70
2022/05/31 06:27:37;;;;;;;9.10;2.90;;;;;;;14.86;55.04;100209.25;4909172;29;20727;-70
2022/05/31 06:30:06;;;;;;;5.10;2.30;;;;;;;14.89;54.37;100204.38;4910957;29;20401;-69
2022/05/31 06:32:34;;;;;;;3.80;1.90;;;;;;;15.00;53.79;100206.59;4928659;29;20240;-69
2022/05/31 06:35:02;;;;;;;3.20;1.87;;;;;;;14.96;54.71;100196.44;4932573;29;20347;-69
2022/05/31 06:37:31;;;;;;;5.57;2.10;;;;;;;14.89;54.53;100203.53;4931563;29;20219;-69
2022/05/31 06:40:08;;;;;;;6.37;2.10;;;;;;;14.92;54.69;100197.84;4930876;29;20271;-71
2022/05/31 06:42:36;;;;;;;6.20;2.10;;;;;;;15.05;54.34;100203.34;4930924;29;20239;-71
2022/05/31 06:45:04;;;;;;;4.33;1.90;;;;;;;15.18;53.81;100192.88;4929868;29;20674;-72
2022/05/31 06:47:32;;;;;;;7.97;3.53;;;;;;;15.25;53.86;100206.31;4933172;29;20706;-67
2022/05/31 06:50:00;;;;;;;7.00;2.47;;;;;;;15.29;53.86;100183.59;4930900;29;20291;-68
2022/05/31 06:58:02;;;;;;;6.67;2.27;;;;;;;15.51;53.94;100195.16;4932715;29;20230;-68
2022/05/31 07:00:30;;;;;;;5.17;2.23;;;;;;;15.57;53.44;100192.59;4928055;29;20227;-71
2022/05/31 07:02:59;;;;;;;4.77;2.00;;;;;;;15.62;52.90;100195.53;4930727;29;20267;-70
2022/05/31 07:05:27;;;;;;;4.53;2.30;;;;;;;15.67;52.40;100202.97;4929754;29;20223;-71
2022/05/31 07:07:55;;;;;;;5.77;2.13;;;;;;;15.73;52.43;100196.91;4930261;29;20564;-70
2022/05/31 07:10:24;;;;;;;4.57;2.10;;;;;;;15.77;53.48;100192.81;4932602;29;20637;-70
2022/05/31 07:12:52;;;;;;;3.70;2.27;;;;;;;15.81;52.81;100199.47;4930277;29;20213;-72
2022/05/31 07:15:20;;;;;;;6.97;2.00;;;;;;;15.82;52.42;100203.81;4932154;29;20219;-71
2022/05/31 07:17:50;;;;;;;5.20;1.90;;;;;;;15.89;52.00;100196.69;4929358;29;20275;-71
2022/05/31 07:20:20;;;;;;;4.13;1.70;;;;;;;15.98;51.64;100182.16;4933520;29;20247;-71
2022/05/31 07:22:48;;;;;;;5.73;2.03;;;;;;;16.05;52.17;100185.72;4928024;29;20318;-72
2022/05/31 07:25:16;;;;;;;5.27;1.93;;;;;;;16.07;51.76;100167.66;4934113;29;20208;-72
2022/05/31 07:27:45;;;;;;;5.87;2.30;;;;;;;16.22;50.77;100172.09;4932836;29;20737;-71
2022/05/31 07:30:13;;;;;;;5.07;1.90;;;;;;;16.32;50.71;100169.94;4932576;29;20236;-71
2022/05/31 07:32:47;;;;;;;7.13;1.90;;;;;;;16.40;51.26;100177.81;4931906;29;20251;-71
2022/05/31 07:35:35;;;;;;;3.73;1.77;;;;;;;16.44;50.27;100163.06;4933618;29;20641;-71
2022/05/31 07:38:09;;;;;;;5.37;2.10;;;;;;;16.45;50.40;100180.72;4935020;29;20212;-71
2022/05/31 07:40:37;;;;;;;3.67;1.80;;;;;;;16.37;50.43;100178.19;4934621;29;20255;-71
2022/05/31 07:43:06;;;;;;;5.90;2.13;;;;;;;16.37;50.17;100181.69;4934773;29;20222;-70
2022/05/31 07:45:34;;;;;;;7.03;1.87;;;;;;;16.41;50.17;100190.19;4941107;29;20223;-70
2022/05/31 07:48:02;;;;;;;7.13;2.30;;;;;;;16.48;50.24;100183.03;4933145;29;20209;-70
2022/05/31 07:50:30;;;;;;;5.50;2.17;;;;;;;16.59;50.52;100185.19;4932452;29;20224;-71
2022/05/31 07:52:59;;;;;;;6.97;2.10;;;;;;;16.67;50.37;100185.09;4932476;29;20296;-70
2022/05/31 07:55:37;;;;;;;4.20;1.67;;;;;;;16.72;50.90;100179.13;4932752;29;20204;-71
2022/05/31 08:00:52;;;;;;;4.23;1.40;;;;;;;16.95;49.06;100173.53;4936434;29;20311;-70
2022/05/31 08:03:19;;;;;;;2.97;1.33;;;;;;;17.04;49.23;100169.69;4935279;29;20227;-71
2022/05/31 08:05:47;;;;;;;4.53;1.43;;;;;;;17.22;48.54;100167.31;4935169;29;20211;-71
2022/05/31 08:08:15;;;;;;;3.80;1.50;;;;;;;17.19;47.33;100159.66;4934995;29;20331;-71
2022/05/31 08:11:04;;;;;;;4.97;1.30;;;;;;;17.23;47.68;100152.91;4935163;29;20209;-72
2022/05/31 08:13:33;;;;;;;5.07;1.40;;;;;;;17.32;46.82;100146.34;4933678;29;20216;-70
2022/05/31 08:16:01;;;;;;;3.90;1.37;;;;;;;17.39;46.07;100144.50;4935717;29;20817;-70
2022/05/31 08:18:33;;;;;;;3.43;1.17;;;;;;;17.41;45.92;100153.19;4935021;29;20677;-71
2022/05/31 08:21:02;;;;;;;3.90;1.47;;;;;;;17.47;45.33;100156.91;4938054;29;20772;-71
2022/05/31 08:23:31;;;;;;;4.10;1.57;;;;;;;17.51;45.84;100164.34;4934918;29;20208;-71
2022/05/31 08:25:59;;;;;;;5.20;2.57;;;;;;;17.58;45.65;100161.69;4934659;29;20851;-71
2022/05/31 08:28:27;;;;;;;4.83;1.50;;;;;;;17.69;45.29;100158.44;4934855;29;20314;-71
2022/05/31 08:31:01;;;;;;;4.17;1.43;;;;;;;17.75;45.91;100164.88;4933811;29;20500;-71
2022/05/31 08:33:29;;;;;;;5.50;1.50;;;;;;;17.85;45.02;100157.28;4931081;29;20657;-70
2022/05/31 08:35:58;;;;;;;10.30;2.00;;;;;;;17.96;44.91;100162.03;4933541;29;20220;-70
2022/05/31 08:38:31;;;;;;;4.50;2.10;;;;;;;17.98;45.43;100159.97;4933766;29;20366;-71
2022/05/31 08:41:08;;;;;;;3.67;2.00;;;;;;;18.05;44.88;100163.47;4936102;29;20684;-71
2022/05/31 08:44:02;;;;;;;6.83;2.00;;;;;;;18.13;44.15;100154.41;4930681;29;20208;-71
2022/05/31 08:46:51;;;;;;;3.60;1.60;;;;;;;18.14;43.52;100153.38;4933376;29;20693;-71
2022/05/31 08:51:52;;;;;;;3.87;1.87;;;;;;;18.07;43.32;100161.44;4931076;29;20299;-71
2022/05/31 08:52:24;;;;;;;8.23;1.67;;;;;;;18.09;44.06;100159.38;4931826;29;20232;-71
2022/05/31 08:57:48;;;;;;;6.63;1.90;;;;;;;18.18;44.64;100152.78;4937818;29;20673;-71
2022/05/31 09:00:18;;;;;;;3.90;2.10;;;;;;;18.27;42.67;100162.28;4937185;29;20208;-71
2022/05/31 09:02:52;;;;;;;7.13;2.10;;;;;;;18.30;42.49;100153.81;4935051;29;20239;-71
2022/05/31 09:05:27;;;;;;;5.30;2.03;;;;;;;18.37;42.70;100153.84;4938408;29;20258;-71
2022/05/31 09:08:01;;;;;;;3.07;1.60;;;;;;;18.42;43.52;100148.66;4940765;29;20554;-71
2022/05/31 09:10:34;;;;;;;2.57;1.40;;;;;;;18.53;43.78;100139.16;4936828;29;20575;-71
2022/05/31 09:13:11;;;;;;;5.70;1.93;;;;;;;18.59;42.76;100149.09;4932154;29;20227;-71
2022/05/31 09:15:42;;;;;;;7.13;1.90;;;;;;;18.62;42.93;100144.16;4931831;29;20212;-71
2022/05/31 09:18:22;;;;;;;3.70;1.63;;;;;;;18.82;43.40;100144.13;4931651;29;20212;-70
2022/05/31 09:20:54;;;;;;;5.83;1.67;;;;;;;18.92;42.10;100155.25;4939226;29;20207;-72
2022/05/31 09:23:25;;;;;;;3.73;1.60;;;;;;;19.02;41.66;100150.25;4933636;29;20228;-72
2022/05/31 09:26:05;;;;;;;6.20;1.50;;;;;;;19.13;42.11;100135.34;4935092;29;20223;-72
2022/05/31 09:28:48;;;;;;;5.30;1.60;;;;;;;19.14;41.24;100137.00;4933378;29;20238;-72
2022/05/31 09:31:30;;;;;;;3.03;1.43;;;;;;;19.25;41.62;100132.84;4927147;29;20377;-72
2022/05/31 09:34:25;;;;;;;4.17;1.40;;;;;;;19.43;41.26;100135.66;4938334;29;20677;-72
2022/05/31 09:37:04;;;;;;;3.90;1.23;;;;;;;19.59;42.02;100137.88;4935757;29;20232;-71
2022/05/31 09:39:37;;;;;;;3.83;1.40;;;;;;;19.68;42.61;100139.28;4932471;29;20224;-70
2022/05/31 09:42:22;;;;;;;3.90;1.63;;;;;;;19.79;41.90;100135.09;4937736;29;20263;-69
2022/05/31 09:45:04;;;;;;;4.23;1.50;;;;;;;19.83;41.53;100134.44;4931372;29;20224;-68
2022/05/31 09:47:32;;;;;;;2.87;1.23;;;;;;;19.93;41.84;100136.66;4928824;29;20219;-68
2022/05/31 09:50:02;;;;;;;5.10;1.53;;;;;;;19.96;40.52;100135.41;4934755;29;20230;-71
2022/05/31 09:52:38;;;;;;;2.83;1.33;;;;;;;20.17;41.79;100121.56;4930285;29;20204;-72
2022/05/31 09:57:59;;;;;;;6.57;1.80;;;;;;;20.37;39.28;100116.88;4934083;29;20219;-72
2022/05/31 10:00:27;;;;;;;3.23;1.50;;;;;;;20.45;40.09;100118.47;4936185;29;20247;-72
2022/05/31 10:03:09;;;;;;;4.33;1.67;;;;;;;20.45;40.64;100118.47;4935654;29;20323;-71
2022/05/31 10:05:39;;;;;;;3.00;1.27;;;;;;;20.52;40.28;100109.28;4934283;29;20251;-71
2022/05/31 10:08:15;;;;;;;3.87;1.60;;;;;;;20.52;39.92;100108.47;4929945;29;20208;-71
2022/05/31 10:10:48;;;;;;;4.30;1.73;;;;;;;20.69;39.05;100108.72;4936444;29;20306;-69
2022/05/31 10:13:36;;;;;;;3.80;1.30;;;;;;;20.80;39.60;100105.28;4932427;29;20706;-69
2022/05/31 10:16:16;;;;;;;5.90;1.97;;;;;;;20.89;38.81;100099.38;4930363;29;20696;-69
2022/05/31 10:18:48;;;;;;;5.37;1.63;;;;;;;20.99;39.76;100093.47;4925423;29;20694;-68
2022/05/31 10:21:30;;;;;;;3.77;1.47;;;;;;;21.09;39.07;100101.84;4928188;29;20658;-71
2022/05/31 10:24:05;;;;;;;7.27;1.50;;;;;;;21.21;39.44;100100.06;4926519;29;20271;-71
2022/05/31 10:26:39;;;;;;;4.73;1.30;;;;;;;21.22;40.11;100093.63;4935754;29;20230;-73
2022/05/31 10:29:16;;;;;;;8.03;1.80;;;;;;;21.15;39.22;100098.25;4931640;29;20708;-71
2022/05/31 10:31:46;;;;;;;8.30;1.53;;;;;;;21.17;39.87;100090.81;4937108;29;20339;-68
2022/05/31 10:34:33;;;;;;;5.53;1.67;;;;;;;21.18;37.81;100092.44;4935375;29;20572;-68
2022/05/31 10:37:08;;;;;;;7.70;1.50;;;;;;;21.25;38.96;100090.50;4929663;29;20239;-70
2022/05/31 10:39:39;;;;;;;4.07;1.30;;;;;;;21.32;39.14;100083.13;4934524;29;20797;-69
2022/05/31 10:42:14;;;;;;;6.10;1.40;;;;;;;21.37;38.68;100085.97;4934783;29;20227;-73
2022/05/31 10:44:50;;;;;;;3.13;1.60;;;;;;;21.32;38.47;100079.59;4929602;29;20239;-70
2022/05/31 10:47:20;;;;;;;7.60;1.70;;;;;;;21.37;37.34;100080.56;4926588;29;20215;-70
2022/05/31 10:49:50;;;;;;;4.83;1.53;;;;;;;21.37;37.79;100085.16;4926681;29;20208;-73
2022/05/31 10:52:25;;;;;;;4.37;1.60;;;;;;;21.34;37.67;100094.53;4923634;29;20299;-70
2022/05/31 10:55:09;;;;;;;6.10;1.60;;;;;;;21.45;36.33;100086.72;4926583;29;20657;-71
2022/05/31 10:57:57;;;;;;;4.95;1.50;;;;;;;21.59;37.22;100078.19;4929212;29;20216;-70
2022/05/31 11:00:37;;;;;;;2.67;1.30;;;;;;;21.70;38.00;100072.03;4930828;29;20208;-70
2022/05/31 11:03:21;;;;;;;6.13;1.30;;;;;;;21.74;37.30;100081.28;4929054;29;20228;-70
2022/05/31 11:06:07;;;;;;;5.30;1.70;;;;;;;21.63;37.25;100084.81;4928676;29;20236;-71
2022/05/31 11:11:47;;;;;;;2.40;1.10;;;;;;;21.62;37.43;100083.16;4932733;29;20247;-70
2022/05/31 11:14:31;;;;;;;6.63;1.53;;;;;;;21.66;37.69;100087.03;4929570;29;20227;-70
2022/05/31 11:17:18;;;;;;;7.27;1.80;;;;;;;21.55;36.50;100084.31;4930198;29;20214;-70
2022/05/31 11:19:54;;;;;;;4.90;1.60;;;;;;;21.55;37.32;100076.22;4933717;29;20302;-72
2022/05/31 11:22:40;;;;;;;3.60;1.37;;;;;;;21.48;36.24;100080.84;4931418;29;20610;-72
2022/05/31 11:25:35;;;;;;;4.07;1.30;;;;;;;21.38;36.73;100082.22;4928612;29;20288;-72
2022/05/31 11:28:27;;;;;;;3.03;1.30;;;;;;;21.29;33.29;100078.19;4935017;29;20212;-72
2022/05/31 11:31:19;;;;;;;5.37;1.50;;;;;;;21.26;32.47;100084.06;4932660;29;20283;-73
2022/05/31 11:34:02;;;;;;;130.53;14.80;;;;;;;21.17;33.28;100088.09;4930998;29;20227;-72
2022/05/31 11:36:41;;;;;;;461.13;45.80;;;;;;;21.26;33.29;100084.06;4934317;29;21099;-73
2022/05/31 11:39:34;;;;;;;45.43;6.17;;;;;;;21.31;33.87;100076.09;4932812;29;20611;-73
2022/05/31 11:42:18;;;;;;;179.57;15.73;;;;;;;21.38;34.16;100081.38;4931314;29;20216;-72
2022/05/31 11:45:02;;;;;;;22.20;3.17;;;;;;;21.42;33.99;100070.97;4933545;29;20608;-73
2022/05/31 11:48:03;;;;;;;20.87;2.73;;;;;;;21.50;35.22;100074.19;4932574;29;20201;-72
2022/05/31 11:50:39;;;;;;;5.40;1.77;;;;;;;21.60;33.94;100074.44;4933718;29;20295;-72
2022/05/31 11:53:37;;;;;;;6.07;1.50;;;;;;;21.77;33.44;100080.03;4934107;29;20219;-72
2022/05/31 11:56:15;;;;;;;8.93;1.70;;;;;;;21.73;33.85;100079.66;4933230;29;21930;-72
2022/05/31 11:58:53;;;;;;;4.33;1.30;;;;;;;21.69;34.10;100078.47;4930354;29;20546;-72
2022/05/31 12:01:25;;;;;;;6.10;1.40;;;;;;;21.74;35.10;100069.66;4927434;29;20223;-72
2022/05/31 12:04:03;;;;;;;4.90;1.50;;;;;;;21.84;34.15;100072.63;4931217;29;20242;-72
2022/05/31 12:06:39;;;;;;;4.87;1.67;;;;;;;21.87;33.76;100064.09;4932507;29;20216;-72
2022/05/31 12:09:15;;;;;;;3.97;1.47;;;;;;;21.73;33.83;100062.63;4932035;29;20841;-71
2022/05/31 12:11:49;;;;;;;3.30;1.47;;;;;;;21.53;34.64;100062.13;4933280;29;20211;-72